createdAt,value
2019-04-06T00:02:22.722Z,13.57
2019-04-06T00:04:52.051Z,12.27
2019-04-06T00:07:21.320Z,12.13
2019-04-06T00:09:50.747Z,13.50
2019-04-06T00:12:19.982Z,12.53
2019-04-06T00:14:49.342Z,12.47
2019-04-06T00:17:18.634Z,12.23
2019-04-06T00:19:47.993Z,12.80
2019-04-06T00:22:17.270Z,13.10
2019-04-06T00:24:46.660Z,12.63
2019-04-06T00:27:15.972Z,12.67
2019-04-06T00:29:45.252Z,12.70
2019-04-06T00:32:33.569Z,12.83
2019-04-06T00:35:02.951Z,12.40
2019-04-06T00:37:32.573Z,12.27
2019-04-06T00:40:01.868Z,12.33
2019-04-06T00:42:31.191Z,12.97
2019-04-06T00:45:00.497Z,12.20
2019-04-06T00:47:29.853Z,12.90
2019-04-06T00:49:59.141Z,11.43
2019-04-06T00:52:28.417Z,12.33
2019-04-06T00:54:57.629Z,11.93
2019-04-06T00:57:26.896Z,13.30
2019-04-06T00:59:56.186Z,12.43
2019-04-06T01:02:25.533Z,11.77
2019-04-06T01:04:54.799Z,12.50
2019-04-06T01:07:24.170Z,12.43
2019-04-06T01:09:53.442Z,11.80
2019-04-06T01:12:22.694Z,12.60
2019-04-06T01:14:51.975Z,11.80
2019-04-06T01:17:21.277Z,12.67
2019-04-06T01:19:50.495Z,12.60
2019-04-06T01:22:19.859Z,12.20
2019-04-06T01:24:49.150Z,12.33
2019-04-06T01:27:18.305Z,12.23
2019-04-06T01:29:47.578Z,11.93
2019-04-06T01:32:16.851Z,12.67
2019-04-06T01:34:46.109Z,11.90
2019-04-06T01:37:15.465Z,11.90
2019-04-06T01:39:44.768Z,11.53
2019-04-06T01:42:14.038Z,13.03
2019-04-06T01:44:43.413Z,12.33
2019-04-06T01:47:12.658Z,12.37
2019-04-06T01:49:42.092Z,11.63
2019-04-06T01:52:11.374Z,11.97
2019-04-06T01:54:40.676Z,13.17
2019-04-06T01:57:09.968Z,11.77
2019-04-06T01:59:39.242Z,12.03
2019-04-06T02:02:25.632Z,12.13
2019-04-06T02:04:54.896Z,12.27
2019-04-06T02:07:24.196Z,12.93
2019-04-06T02:09:53.529Z,12.50
2019-04-06T02:12:22.825Z,11.57
2019-04-06T02:14:52.070Z,12.83
2019-04-06T02:17:21.324Z,12.30
2019-04-06T02:19:50.617Z,12.53
2019-04-06T02:22:19.914Z,11.97
2019-04-06T02:24:49.214Z,12.57
2019-04-06T02:27:18.452Z,12.73
2019-04-06T02:29:49.296Z,12.20
2019-04-06T02:32:40.664Z,12.40
2019-04-06T02:35:28.341Z,12.97
2019-04-06T02:38:12.060Z,12.07
2019-04-06T02:40:55.895Z,12.80
2019-04-06T02:43:27.547Z,12.50
2019-04-06T02:45:57.119Z,11.63
2019-04-06T02:48:26.476Z,11.47
2019-04-06T02:50:55.808Z,11.97
2019-04-06T02:53:25.164Z,12.37
2019-04-06T02:55:54.463Z,11.73
2019-04-06T02:58:24.946Z,11.90
2019-04-06T03:00:54.331Z,11.40
2019-04-06T03:03:23.580Z,12.60
2019-04-06T03:05:52.862Z,12.60
2019-04-06T03:08:22.199Z,12.67
2019-04-06T03:10:51.484Z,12.50
2019-04-06T03:13:20.799Z,11.80
2019-04-06T03:15:50.111Z,11.97
2019-04-06T03:18:19.372Z,12.67
2019-04-06T03:20:48.650Z,11.43
2019-04-06T03:23:18.026Z,11.10
2019-04-06T03:25:47.363Z,11.83
2019-04-06T03:28:16.652Z,12.60
2019-04-06T03:30:45.965Z,11.93
2019-04-06T03:33:15.548Z,11.63
2019-04-06T03:35:47.932Z,12.17
2019-04-06T03:38:15.968Z,11.87
2019-04-06T03:40:45.569Z,12.03
2019-04-06T03:43:14.809Z,11.73
2019-04-06T03:45:44.120Z,10.87
2019-04-06T03:48:13.376Z,11.13
2019-04-06T03:50:43.515Z,11.97
2019-04-06T03:53:12.810Z,12.07
2019-04-06T03:55:42.105Z,11.17
2019-04-06T03:58:11.416Z,11.20
2019-04-06T04:00:40.692Z,11.03
2019-04-06T04:03:09.986Z,10.77
2019-04-06T04:05:39.349Z,11.57
2019-04-06T04:08:08.912Z,11.07
2019-04-06T04:10:39.033Z,10.80
2019-04-06T04:13:08.301Z,11.13
2019-04-06T04:15:37.738Z,12.87
2019-04-06T04:18:06.975Z,11.13
2019-04-06T04:20:36.393Z,12.70
2019-04-06T04:23:05.706Z,12.10
2019-04-06T04:25:35.022Z,11.27
2019-04-06T04:28:04.318Z,11.40
2019-04-06T04:30:34.670Z,11.37
2019-04-06T04:33:04.301Z,11.73
2019-04-06T04:35:33.710Z,12.33
2019-04-06T04:38:02.985Z,11.53
2019-04-06T04:40:32.270Z,11.93
2019-04-06T04:43:01.677Z,10.60
2019-04-06T04:45:31.918Z,11.03
2019-04-06T04:48:01.422Z,12.37
2019-04-06T04:50:30.683Z,11.10
2019-04-06T04:52:59.921Z,11.63
2019-04-06T04:55:29.176Z,10.90
2019-04-06T04:57:58.458Z,10.50
2019-04-06T05:00:27.673Z,11.03
2019-04-06T05:02:56.962Z,11.13
2019-04-06T05:05:26.442Z,11.83
2019-04-06T05:07:55.737Z,12.33
2019-04-06T05:10:24.998Z,10.40
2019-04-06T05:12:54.494Z,10.53
2019-04-06T05:15:37.691Z,12.07
2019-04-06T05:18:07.077Z,11.43
2019-04-06T05:20:36.341Z,12.23
2019-04-06T05:23:05.664Z,11.17
2019-04-06T05:25:35.269Z,11.93
2019-04-06T05:28:04.579Z,13.13
2019-04-06T05:30:33.952Z,12.37
2019-04-06T05:33:03.252Z,11.07
2019-04-06T05:35:32.557Z,11.73
2019-04-06T05:38:01.857Z,11.77
2019-04-06T05:40:31.174Z,11.50
2019-04-06T05:43:00.537Z,12.23
2019-04-06T05:45:29.794Z,10.97
2019-04-06T05:47:59.093Z,12.00
2019-04-06T05:50:28.590Z,11.17
2019-04-06T05:52:57.880Z,11.83
2019-04-06T05:55:27.164Z,11.90
2019-04-06T05:58:03.755Z,11.57
2019-04-06T06:00:27.708Z,12.37
2019-04-06T06:02:56.968Z,12.10
2019-04-06T06:05:26.229Z,11.40
2019-04-06T06:07:55.524Z,11.80
2019-04-06T06:10:24.783Z,12.20
2019-04-06T06:12:54.053Z,12.00
2019-04-06T06:15:23.409Z,12.77
2019-04-06T06:17:52.677Z,12.07
2019-04-06T06:20:22.052Z,11.23
2019-04-06T06:22:51.435Z,12.13
2019-04-06T06:25:20.788Z,12.50
2019-04-06T06:27:50.112Z,11.23
2019-04-06T06:30:19.712Z,11.47
2019-04-06T06:32:49.174Z,11.87
2019-04-06T06:35:18.468Z,12.13
2019-04-06T06:37:47.719Z,12.10
2019-04-06T06:40:17.007Z,12.23
2019-04-06T06:42:46.287Z,12.20
2019-04-06T06:45:15.687Z,12.50
2019-04-06T06:47:44.966Z,12.63
2019-04-06T06:50:14.511Z,12.07
2019-04-06T06:52:43.923Z,11.87
2019-04-06T06:55:13.606Z,12.67
2019-04-06T06:57:42.948Z,13.07
2019-04-06T07:00:12.511Z,12.33
2019-04-06T07:02:41.909Z,12.60
2019-04-06T07:05:11.176Z,12.00
2019-04-06T07:07:40.434Z,12.00
2019-04-06T07:10:09.866Z,11.60
2019-04-06T07:12:39.254Z,12.17
2019-04-06T07:15:09.247Z,12.40
2019-04-06T07:17:38.503Z,12.23
2019-04-06T07:20:08.702Z,13.30
2019-04-06T07:22:37.904Z,12.57
2019-04-06T07:25:07.955Z,12.30
2019-04-06T07:27:37.299Z,13.30
2019-04-06T07:30:07.495Z,12.47
2019-04-06T07:32:36.762Z,13.40
2019-04-06T07:35:06.386Z,12.17
2019-04-06T07:37:35.611Z,13.07
2019-04-06T07:40:06.034Z,12.50
2019-04-06T07:42:35.323Z,12.37
2019-04-06T07:45:04.918Z,12.80
2019-04-06T07:47:34.183Z,12.10
2019-04-06T07:50:04.686Z,11.70
2019-04-06T07:52:34.120Z,12.97
2019-04-06T07:55:03.484Z,13.27
2019-04-06T07:57:32.778Z,11.37
2019-04-06T08:00:02.694Z,12.17
2019-04-06T08:02:32.030Z,11.87
2019-04-06T08:05:01.306Z,12.83
2019-04-06T08:07:30.560Z,11.33
2019-04-06T08:09:59.901Z,12.63
2019-04-06T08:12:29.139Z,11.40
2019-04-06T08:14:58.857Z,11.57
2019-04-06T08:17:28.104Z,11.10
2019-04-06T08:19:57.409Z,11.40
2019-04-06T08:22:26.745Z,11.70
2019-04-06T08:24:56.066Z,10.90
2019-04-06T08:27:25.556Z,12.13
2019-04-06T08:29:54.815Z,11.60
2019-04-06T08:32:24.097Z,11.23
2019-04-06T08:34:53.377Z,10.77
2019-04-06T08:37:24.833Z,10.37
2019-04-06T08:39:54.530Z,11.07
2019-04-06T08:42:23.906Z,11.53
2019-04-06T08:44:53.261Z,12.40
2019-04-06T08:47:22.611Z,12.00
2019-04-06T08:49:51.889Z,10.40
2019-04-06T08:52:21.181Z,11.27
2019-04-06T08:54:50.364Z,11.40
2019-04-06T08:57:19.656Z,10.10
2019-04-06T08:59:48.952Z,10.13
2019-04-06T09:02:18.264Z,11.17
2019-04-06T09:04:47.609Z,11.30
2019-04-06T09:07:16.956Z,9.80
2019-04-06T09:09:46.471Z,10.07
2019-04-06T09:12:15.836Z,10.50
2019-04-06T09:14:45.424Z,9.50
2019-04-06T09:17:14.812Z,10.23
2019-04-06T09:19:44.256Z,9.50
2019-04-06T09:22:13.816Z,9.07
2019-04-06T09:24:43.020Z,9.73
2019-04-06T09:27:12.412Z,9.23
2019-04-06T09:29:41.707Z,9.23
2019-04-06T09:32:10.964Z,9.77
2019-04-06T09:34:40.267Z,9.93
2019-04-06T09:37:09.569Z,9.43
2019-04-06T09:39:38.904Z,9.23
2019-04-06T09:42:08.200Z,9.30
2019-04-06T09:44:56.507Z,9.20
2019-04-06T09:47:36.587Z,8.90
2019-04-06T09:50:24.812Z,9.97
2019-04-06T09:53:11.993Z,9.13
2019-04-06T09:56:00.649Z,8.87
2019-04-06T09:58:40.255Z,8.90
2019-04-06T10:01:37.382Z,8.60
2019-04-06T10:04:17.119Z,8.43
2019-04-06T10:06:54.102Z,9.10
2019-04-06T10:09:48.515Z,8.23
2019-04-06T10:12:35.458Z,8.53
2019-04-06T10:15:22.667Z,8.20
2019-04-06T10:18:20.561Z,7.67
2019-04-06T10:21:06.643Z,8.43
2019-04-06T10:24:10.304Z,8.50
2019-04-06T10:27:08.695Z,9.43
2019-04-06T10:29:54.583Z,8.53
2019-04-06T10:32:33.087Z,8.60
2019-04-06T10:35:21.387Z,8.43
2019-04-06T10:38:15.726Z,8.50
2019-04-06T10:40:51.658Z,8.50
2019-04-06T10:43:40.110Z,7.50
2019-04-06T10:46:34.530Z,7.83
2019-04-06T10:49:32.848Z,8.10
2019-04-06T10:52:21.182Z,8.67
2019-04-06T10:55:06.227Z,8.53
2019-04-06T10:57:46.678Z,8.90
2019-04-06T11:00:38.167Z,8.30
2019-04-06T11:03:35.579Z,7.50
2019-04-06T11:06:16.205Z,7.90
2019-04-06T11:09:03.226Z,8.30
2019-04-06T11:11:57.642Z,8.10
2019-04-06T11:14:34.595Z,7.73
2019-04-06T11:17:13.282Z,9.60
2019-04-06T11:19:48.289Z,7.33
2019-04-06T11:22:23.395Z,8.07
2019-04-06T11:25:14.791Z,6.80
2019-04-06T11:28:10.730Z,8.43
2019-04-06T11:31:02.019Z,7.57
2019-04-06T11:33:55.274Z,7.20
2019-04-06T11:36:42.000Z,7.77
2019-04-06T11:39:45.461Z,7.57
2019-04-06T11:42:20.477Z,7.70
2019-04-06T11:45:27.214Z,7.80
2019-04-06T11:48:15.645Z,7.40
2019-04-06T11:51:19.053Z,7.77
2019-04-06T11:54:13.361Z,7.40
2019-04-06T11:56:54.385Z,7.67
2019-04-06T11:59:45.341Z,7.00
2019-04-06T12:02:39.848Z,7.47
2019-04-06T12:05:17.113Z,7.77
2019-04-06T12:08:08.309Z,7.23
2019-04-06T12:10:59.877Z,8.23
2019-04-06T12:13:56.657Z,7.13
2019-04-06T12:16:44.993Z,8.17
2019-04-06T12:19:20.974Z,7.40
2019-04-06T12:22:09.795Z,7.87
2019-04-06T12:25:16.477Z,7.27
2019-04-06T12:27:52.994Z,8.13
2019-04-06T12:30:41.369Z,7.67
2019-04-06T12:33:25.192Z,8.00
2019-04-06T12:36:04.228Z,8.70
2019-04-06T12:38:49.139Z,8.13
2019-04-06T12:41:40.727Z,7.73
2019-04-06T12:44:29.456Z,8.73
2019-04-06T12:47:08.496Z,7.90
2019-04-06T12:49:59.628Z,8.53
2019-04-06T12:52:36.604Z,8.77
2019-04-06T12:55:12.406Z,8.03
2019-04-06T12:58:06.687Z,7.87
2019-04-06T13:00:52.767Z,8.53
2019-04-06T13:03:34.512Z,8.07
2019-04-06T13:06:31.872Z,8.07
2019-04-06T13:09:24.800Z,8.53
2019-04-06T13:12:12.637Z,7.97
2019-04-06T13:14:47.485Z,9.33
2019-04-06T13:17:30.123Z,7.90
2019-04-06T13:20:17.476Z,8.40
2019-04-06T13:23:05.139Z,8.75
2019-04-06T13:25:52.312Z,9.15
2019-04-06T13:28:38.135Z,9.30
2019-04-06T13:31:16.956Z,9.13
2019-04-06T13:34:05.280Z,9.03
2019-04-06T13:36:59.812Z,8.77
2019-04-06T13:39:35.727Z,8.95
2019-04-06T13:42:26.852Z,9.63
2019-04-06T13:45:07.030Z,8.97
2019-04-06T13:47:55.893Z,7.93
2019-04-06T13:50:36.112Z,9.18
2019-04-06T13:53:21.827Z,8.60
2019-04-06T13:56:09.129Z,7.95
2019-04-06T13:58:56.439Z,8.03
2019-04-06T14:01:44.019Z,8.57
2019-04-06T14:04:22.715Z,8.73
2019-04-06T14:07:20.395Z,8.40
2019-04-06T14:10:05.625Z,9.00
2019-04-06T14:12:56.832Z,8.40
2019-04-06T14:15:45.879Z,9.30
2019-04-06T14:18:37.035Z,8.77
2019-04-06T14:21:18.730Z,8.60
2019-04-06T14:24:13.118Z,7.70
2019-04-06T14:27:10.707Z,8.93
2019-04-06T14:30:02.617Z,8.37
2019-04-06T14:32:47.568Z,8.50
2019-04-06T14:35:41.832Z,7.90
2019-04-06T14:38:20.974Z,7.42
2019-04-06T14:40:59.140Z,8.50
2019-04-06T14:43:38.753Z,8.40
2019-04-06T14:46:29.870Z,8.20
2019-04-06T14:49:28.982Z,8.47
2019-04-06T14:52:00.785Z,8.13
2019-04-06T14:54:44.413Z,8.43
2019-04-06T14:57:32.768Z,8.90
2019-04-06T15:00:17.476Z,8.37
2019-04-06T15:03:08.423Z,9.30
2019-04-06T15:05:56.774Z,8.20
2019-04-06T15:08:48.143Z,8.73
2019-04-06T15:11:35.363Z,9.20
2019-04-06T15:14:28.278Z,7.67
2019-04-06T15:17:10.075Z,8.17
2019-04-06T15:20:01.147Z,9.23
2019-04-06T15:22:50.012Z,7.57
2019-04-06T15:25:41.212Z,8.10
2019-04-06T15:28:26.207Z,7.93
2019-04-06T15:31:07.685Z,7.67
2019-04-06T15:33:55.181Z,8.03
2019-04-06T15:37:02.213Z,8.07
2019-04-06T15:39:49.329Z,8.13
2019-04-06T15:42:43.881Z,8.07
2019-04-06T15:45:34.809Z,7.63
2019-04-06T15:48:35.798Z,7.77
2019-04-06T15:51:02.928Z,7.83
2019-04-06T15:54:01.497Z,8.00
2019-04-06T15:56:37.010Z,7.90
2019-04-06T15:59:31.341Z,7.87
2019-04-06T16:02:18.210Z,8.17
2019-04-06T16:05:03.257Z,8.60
2019-04-06T16:08:03.724Z,7.30
2019-04-06T16:10:45.925Z,8.10
2019-04-06T16:13:34.350Z,8.50
2019-04-06T16:16:11.633Z,8.37
2019-04-06T16:19:00.326Z,8.30
2019-04-06T16:22:00.734Z,8.00
2019-04-06T16:24:55.207Z,7.90
2019-04-06T16:27:34.327Z,7.23
2019-04-06T16:30:21.481Z,7.63
2019-04-06T16:33:10.164Z,8.07
2019-04-06T16:36:09.252Z,8.13
2019-04-06T16:39:03.543Z,8.17
2019-04-06T16:42:00.967Z,8.27
2019-04-06T16:44:52.829Z,7.40
2019-04-06T16:47:56.518Z,8.00
2019-04-06T16:50:43.181Z,7.83
2019-04-06T16:53:39.705Z,7.83
2019-04-06T16:56:22.827Z,7.70
2019-04-06T16:59:11.223Z,8.00
2019-04-06T17:01:58.308Z,8.30
2019-04-06T17:04:42.871Z,8.00
2019-04-06T17:07:21.457Z,7.90
2019-04-06T17:10:14.053Z,8.97
2019-04-06T17:13:02.693Z,8.57
2019-04-06T17:15:40.091Z,8.87
2019-04-06T17:18:36.770Z,8.80
2019-04-06T17:21:24.020Z,8.30
2019-04-06T17:24:15.795Z,8.97
2019-04-06T17:26:54.879Z,9.13
2019-04-06T17:30:02.092Z,9.17
2019-04-06T17:32:38.207Z,9.07
2019-04-06T17:35:25.292Z,10.37
2019-04-06T17:38:13.772Z,9.90
2019-04-06T17:41:02.252Z,9.00
2019-04-06T17:43:53.539Z,9.30
2019-04-06T17:46:46.253Z,8.43
2019-04-06T17:49:37.150Z,8.63
2019-04-06T17:52:16.139Z,9.53
2019-04-06T17:55:05.263Z,8.97
2019-04-06T17:57:49.094Z,9.60
2019-04-06T18:00:43.611Z,8.90
2019-04-06T18:03:31.023Z,8.90
2019-04-06T18:06:16.612Z,8.70
2019-04-06T18:09:05.847Z,9.33
2019-04-06T18:11:48.171Z,9.63
2019-04-06T18:14:18.494Z,9.33
2019-04-06T18:16:48.363Z,8.83
2019-04-06T18:19:17.659Z,9.77
2019-04-06T18:21:46.969Z,9.97
2019-04-06T18:24:16.247Z,9.27
2019-04-06T18:26:45.620Z,9.63
2019-04-06T18:29:15.142Z,9.63
2019-04-06T18:31:59.387Z,9.43
2019-04-06T18:34:28.711Z,10.47
2019-04-06T18:37:26.674Z,9.87
2019-04-06T18:39:56.890Z,10.43
2019-04-06T18:42:26.246Z,10.63
2019-04-06T18:44:55.505Z,10.27
2019-04-06T18:47:25.699Z,10.23
2019-04-06T18:49:54.990Z,9.93
2019-04-06T18:52:24.306Z,10.90
2019-04-06T18:54:54.482Z,10.83
2019-04-06T18:57:23.843Z,10.27
2019-04-06T18:59:53.176Z,9.90
2019-04-06T19:02:22.593Z,10.40
2019-04-06T19:04:52.005Z,10.33
2019-04-06T19:07:21.217Z,10.63
2019-04-06T19:09:50.943Z,10.57
2019-04-06T19:12:20.278Z,10.83
2019-04-06T19:14:49.584Z,10.40
2019-04-06T19:17:18.850Z,10.63
2019-04-06T19:19:48.160Z,11.20
2019-04-06T19:22:17.434Z,10.13
2019-04-06T19:24:46.767Z,9.70
2019-04-06T19:27:16.122Z,9.33
2019-04-06T19:29:45.397Z,9.90
2019-04-06T19:32:14.816Z,9.87
2019-04-06T19:34:44.186Z,10.30
2019-04-06T19:37:13.570Z,10.43
2019-04-06T19:39:43.289Z,9.63
2019-04-06T19:42:13.027Z,10.17
2019-04-06T19:44:42.507Z,9.03
2019-04-06T19:47:12.024Z,10.13
2019-04-06T19:49:41.294Z,10.40
2019-04-06T19:52:10.707Z,11.47
2019-04-06T19:54:40.273Z,10.93
2019-04-06T19:57:09.731Z,10.80
2019-04-06T19:59:39.087Z,12.27
2019-04-06T20:02:08.810Z,15.23
2019-04-06T20:04:38.614Z,52.53
2019-04-06T20:07:08.852Z,93.47
2019-04-06T20:09:38.907Z,69.63
2019-04-06T20:12:11.749Z,25.90
2019-04-06T20:14:41.020Z,19.27
2019-04-06T20:17:11.366Z,19.30
2019-04-06T20:19:40.727Z,73.73
2019-04-06T20:22:10.321Z,33.67
2019-04-06T20:24:40.581Z,19.00
2019-04-06T20:27:10.468Z,17.80
2019-04-06T20:29:42.034Z,18.83
2019-04-06T20:32:11.396Z,26.90
2019-04-06T20:34:40.698Z,28.60
2019-04-06T20:37:10.186Z,29.50
2019-04-06T20:39:39.568Z,24.23
2019-04-06T20:42:08.940Z,22.63
2019-04-06T20:44:38.277Z,20.87
2019-04-06T20:47:07.590Z,20.90
2019-04-06T20:49:37.339Z,19.90
2019-04-06T20:52:07.120Z,18.70
2019-04-06T20:54:36.426Z,18.13
2019-04-06T20:57:05.729Z,19.70
2019-04-06T20:59:34.999Z,20.27
2019-04-06T21:02:04.470Z,20.13
2019-04-06T21:04:33.944Z,22.73
2019-04-06T21:07:03.357Z,25.83
2019-04-06T21:09:35.174Z,18.07
2019-04-06T21:12:03.591Z,18.70
2019-04-06T21:14:32.860Z,18.20
2019-04-06T21:17:02.537Z,18.53
2019-04-06T21:19:31.930Z,17.03
2019-04-06T21:22:01.398Z,16.03
2019-04-06T21:24:30.725Z,17.37
2019-04-06T21:26:59.966Z,16.27
2019-04-06T21:29:29.321Z,16.27
2019-04-06T21:31:58.665Z,16.07
2019-04-06T21:34:28.143Z,18.13
2019-04-06T21:36:57.570Z,16.40
2019-04-06T21:39:26.961Z,17.13
2019-04-06T21:41:56.504Z,22.17
2019-04-06T21:44:26.574Z,24.03
2019-04-06T21:46:56.033Z,25.27
2019-04-06T21:49:25.277Z,24.53
2019-04-06T21:51:55.253Z,19.27
2019-04-06T21:54:25.000Z,18.80
2019-04-06T21:56:54.483Z,18.47
2019-04-06T21:59:24.410Z,18.73
2019-04-06T22:01:54.149Z,20.60
2019-04-06T22:04:26.581Z,21.27
2019-04-06T22:06:54.439Z,22.23
2019-04-06T22:09:24.476Z,20.90
2019-04-06T22:11:53.858Z,24.27
2019-04-06T22:14:23.123Z,22.47
2019-04-06T22:16:52.428Z,23.77
2019-04-06T22:19:21.704Z,22.40
2019-04-06T22:21:50.960Z,20.83
2019-04-06T22:24:20.461Z,19.87
2019-04-06T22:26:50.632Z,21.57
2019-04-06T22:29:20.677Z,19.27
2019-04-06T22:31:49.978Z,19.80
2019-04-06T22:34:19.359Z,18.83
2019-04-06T22:36:48.692Z,18.60
2019-04-06T22:39:17.935Z,18.40
2019-04-06T22:41:47.182Z,17.93
2019-04-06T22:44:16.471Z,19.40
2019-04-06T22:46:46.327Z,18.37
2019-04-06T22:49:16.099Z,18.30
2019-04-06T22:51:46.002Z,17.93
2019-04-06T22:54:15.401Z,18.90
2019-04-06T22:56:45.240Z,20.33
2019-04-06T22:59:15.027Z,19.70
2019-04-06T23:01:44.894Z,19.43
2019-04-06T23:04:48.547Z,21.50
2019-04-06T23:07:18.944Z,22.43
2019-04-06T23:09:48.325Z,21.23
2019-04-06T23:12:17.810Z,22.07
2019-04-06T23:14:47.698Z,20.60
2019-04-06T23:17:17.139Z,22.53
2019-04-06T23:19:46.904Z,20.53
2019-04-06T23:22:16.776Z,21.23
2019-04-06T23:24:46.827Z,21.60
2019-04-06T23:27:16.139Z,21.40
2019-04-06T23:29:45.535Z,20.50
2019-04-06T23:32:14.884Z,20.53
2019-04-06T23:34:44.744Z,21.70
2019-04-06T23:37:14.131Z,20.67
2019-04-06T23:39:43.499Z,20.80
2019-04-06T23:42:12.791Z,22.60
2019-04-06T23:44:42.166Z,20.73
2019-04-06T23:47:11.446Z,23.03
2019-04-06T23:49:40.769Z,22.10
2019-04-06T23:52:10.443Z,21.83
2019-04-06T23:54:39.978Z,20.20
2019-04-06T23:57:09.346Z,21.17
2019-04-06T23:59:38.695Z,20.80
